.
WxDataArchive / Data Records for 2015-08-24
2015-08-23 August 2015 2015-08-25

Data Records for Monday, 24 August 2015

Time	Temp	Chill	HIndex	Humid	Dewpt	 Wind 	HiWind	WindDir	Rain 	Barom
-----	----	-----	------	-----	-----	------	------	-------	-----	-----
00:00	62.4	62.4	62.4	86	58.2	0	0	---	0.00	29.883 
00:05	62.1	62.1	62.1	86	57.9	0	0	---	0.00	29.883 
00:10	61.8	61.8	61.8	87	57.9	0	0	---	0.00	29.883 
00:15	61.6	61.6	61.6	87	57.7	0	0	---	0.00	29.885 
00:20	61.3	61.3	61.3	87	57.4	0	0	---	0.00	29.885 
00:25	61.2	61.2	61.2	88	57.6	0	0	---	0.00	29.885 
00:30	60.9	60.9	60.9	88	57.3	0	0	---	0.00	29.884 
00:35	60.7	60.7	60.7	88	57.1	0	0	---	0.00	29.884 
00:40	60.4	60.4	60.4	89	57.1	0	0	---	0.00	29.884 
00:45	60.2	60.2	60.2	89	56.9	0	0	---	0.00	29.882 
00:50	59.9	59.9	59.9	89	56.6	0	0	---	0.00	29.882 
00:55	59.8	59.8	59.8	90	56.9	0	0	---	0.00	29.882 
01:00	59.6	59.6	59.6	90	56.7	0	0	---	0.00	29.885 
01:05	59.5	59.5	59.5	90	56.6	0	0	---	0.00	29.885 
01:10	59.3	59.3	59.3	90	56.4	0	0	---	0.00	29.885 
01:15	59.2	59.2	59.2	91	56.6	0	0	---	0.00	29.889 
01:20	59.2	59.2	59.2	91	56.6	0	0	---	0.00	29.889 
01:25	59.2	59.2	59.2	91	56.6	0	0	---	0.00	29.889 
01:30	59.2	59.2	59.2	91	56.6	0	0	---	0.00	29.891 
01:35	59.2	59.2	59.2	92	56.9	0	0	---	0.00	29.891 
01:40	59.2	59.2	59.2	92	56.9	0	0	---	0.00	29.891 
01:45	59.2	59.2	59.2	92	56.9	0	0	---	0.00	29.891 
01:50	59.0	59.0	59.0	92	56.7	0	0	---	0.00	29.891 
01:55	59.0	59.0	59.0	92	56.7	0	0	---	0.00	29.891 
02:00	58.9	58.9	58.9	92	56.6	0	0	---	0.00	29.888 
02:05	58.7	58.7	58.7	92	56.4	0	0	---	0.00	29.888 
02:10	58.7	58.7	58.7	92	56.4	0	0	---	0.00	29.888 
02:15	58.7	58.7	58.7	92	56.4	0	0	---	0.00	29.888 
02:20	58.7	58.7	58.7	92	56.4	0	0	---	0.00	29.888 
02:25	58.7	58.7	58.7	93	56.7	0	0	---	0.00	29.888 
02:30	58.6	58.6	58.6	93	56.6	0	0	---	0.00	29.882 
02:35	58.6	58.6	58.6	93	56.6	0	0	---	0.00	29.882 
02:40	58.6	58.6	58.6	93	56.6	0	1	292	0.00	29.882 
02:45	58.6	58.6	58.6	93	56.6	0	0	---	0.00	29.882 
02:50	58.6	58.6	58.6	93	56.6	0	0	---	0.00	29.882 
02:55	58.7	58.7	58.7	93	56.7	0	0	---	0.00	29.882 
03:00	58.7	58.7	58.7	94	57.0	0	0	---	0.00	29.877 
03:05	58.7	58.7	58.7	94	57.0	0	0	---	0.00	29.877 
03:10	58.7	58.7	58.7	94	57.0	0	0	---	0.00	29.877 
03:15	58.7	58.7	58.7	94	57.0	0	0	---	0.00	29.877 
03:20	58.9	58.9	58.9	94	57.2	0	0	---	0.00	29.877 
03:25	58.9	58.9	58.9	94	57.2	0	0	---	0.00	29.877 
03:30	58.9	58.9	58.9	94	57.2	0	0	---	0.00	29.878 
03:35	58.9	58.9	58.9	94	57.2	0	0	---	0.00	29.878 
03:40	58.9	58.9	58.9	94	57.2	0	0	---	0.00	29.878 
03:45	58.9	58.9	58.9	94	57.2	0	0	---	0.00	29.877 
03:50	59.0	59.0	59.0	94	57.3	0	0	---	0.00	29.877 
03:55	59.0	59.0	59.0	94	57.3	0	0	---	0.00	29.877 
04:00	58.9	58.9	58.9	93	56.9	0	0	---	0.00	29.875 
04:05	58.9	58.9	58.9	93	56.9	0	0	---	0.00	29.875 
04:10	58.7	58.7	58.7	93	56.7	0	0	---	0.00	29.875 
04:15	58.7	58.7	58.7	93	56.7	0	0	---	0.00	29.878 
04:20	58.6	58.6	58.6	93	56.6	0	0	---	0.00	29.878 
04:25	58.6	58.6	58.6	93	56.6	0	0	---	0.00	29.878 
04:30	58.4	58.4	58.4	93	56.4	0	0	---	0.00	29.876 
04:35	58.4	58.4	58.4	92	56.1	0	0	---	0.00	29.876 
04:40	58.3	58.3	58.3	92	56.0	0	0	---	0.00	29.876 
04:45	58.3	58.3	58.3	92	56.0	0	0	---	0.00	29.876 
04:50	58.1	58.1	58.1	92	55.8	0	0	---	0.00	29.876 
04:55	58.1	58.1	58.1	92	55.8	0	0	---	0.00	29.876 
05:00	58.0	58.0	58.0	92	55.7	0	0	---	0.00	29.876 
05:05	57.8	57.8	57.8	92	55.5	0	0	---	0.00	29.876 
05:10	57.8	57.8	57.8	92	55.5	0	0	---	0.00	29.876 
05:15	57.8	57.8	57.8	92	55.5	0	0	---	0.00	29.880 
05:20	57.6	57.6	57.6	92	55.3	0	0	---	0.00	29.880 
05:25	57.5	57.5	57.5	92	55.2	0	0	---	0.00	29.880 
05:30	57.5	57.5	57.5	92	55.2	0	0	---	0.00	29.883 
05:35	57.3	57.3	57.3	92	55.0	0	0	---	0.00	29.883 
05:40	57.3	57.3	57.3	92	55.0	0	0	---	0.00	29.883 
05:45	57.2	57.2	57.2	92	54.9	0	0	---	0.00	29.886 
05:50	57.2	57.2	57.2	92	54.9	0	0	---	0.00	29.886 
05:55	57.2	57.2	57.2	93	55.2	0	0	---	0.00	29.886 
06:00	57.2	57.2	57.2	93	55.2	0	0	---	0.00	29.886 
06:05	57.2	57.2	57.2	93	55.2	0	0	---	0.00	29.886 
06:10	57.2	57.2	57.2	93	55.2	0	1	292	0.00	29.886 
06:15	57.0	57.0	57.0	93	55.0	0	1	292	0.00	29.889 
06:20	57.0	57.0	57.0	93	55.0	0	0	---	0.00	29.889 
06:25	57.0	57.0	57.0	92	54.7	0	0	---	0.00	29.889 
06:30	57.0	57.0	57.0	92	54.7	0	1	292	0.00	29.895 
06:35	56.9	56.9	56.9	92	54.6	0	1	292	0.00	29.895 
06:40	56.9	56.9	56.9	92	54.6	0	0	---	0.00	29.895 
06:45	56.9	56.9	56.9	92	54.6	0	0	---	0.00	29.900 
06:50	56.9	56.9	56.9	92	54.6	0	0	---	0.00	29.900 
06:55	56.7	56.7	56.7	92	54.4	0	1	292	0.00	29.900 
07:00	56.7	56.7	56.7	92	54.4	0	0	---	0.00	29.901 
07:05	56.7	56.7	56.7	92	54.4	0	1	292	0.00	29.901 
07:10	56.7	56.7	56.7	92	54.4	0	1	292	0.00	29.901 
07:15	56.7	56.7	56.7	91	54.1	0	1	292	0.00	29.902 
07:20	56.9	56.9	56.9	91	54.3	0	1	292	0.00	29.902 
07:25	56.9	56.9	56.9	91	54.3	0	1	292	0.00	29.902 
07:30	56.9	56.9	56.9	91	54.3	0	1	292	0.00	29.909 
07:35	56.9	56.9	56.9	90	54.0	0	1	292	0.00	29.909 
07:40	57.0	57.0	57.0	90	54.1	0	1	292	0.00	29.909 
07:45	57.2	57.2	57.2	90	54.3	0	1	292	0.00	29.912 
07:50	57.3	57.3	57.3	89	54.1	0	1	292	0.00	29.912 
07:55	57.6	57.6	57.6	89	54.4	0	2	292	0.00	29.912 
08:00	58.0	58.0	58.0	88	54.5	0	2	292	0.00	29.915 
08:05	58.3	58.3	58.3	87	54.4	0	2	292	0.00	29.915 
08:10	58.7	58.7	58.7	87	54.8	0	1	292	0.00	29.915 
08:15	59.2	59.2	59.2	86	55.0	0	1	292	0.00	29.914 
08:20	59.6	59.6	59.6	85	55.1	0	1	292	0.00	29.914 
08:25	59.9	59.9	59.9	83	54.7	0	1	292	0.00	29.914 
08:30	60.2	60.2	60.2	82	54.7	0	2	292	0.00	29.917 
08:35	60.4	60.4	60.4	81	54.5	0	3	292	0.01	29.917 
08:40	60.5	60.5	60.5	81	54.6	0	1	292	0.00	29.917 
08:45	60.7	60.7	60.7	79	54.1	0	3	292	0.00	29.918 
08:50	60.7	60.7	60.7	79	54.1	0	3	292	0.00	29.918 
08:55	60.9	60.9	60.9	79	54.3	0	1	292	0.00	29.918 
09:00	61.0	61.0	61.0	79	54.4	0	1	292	0.00	29.919 
09:05	61.0	61.0	61.0	78	54.1	0	3	292	0.00	29.919 
09:10	61.0	61.0	61.0	77	53.7	0	2	292	0.00	29.919 
09:15	61.0	61.0	61.0	77	53.7	1	2	292	0.00	29.924 
09:20	61.2	61.2	61.2	77	53.9	1	3	292	0.00	29.924 
09:25	61.3	61.3	61.3	76	53.7	1	3	292	0.00	29.924 
09:30	61.5	61.5	61.5	77	54.2	1	3	292	0.00	29.922 
09:35	61.6	61.6	61.6	76	54.0	1	3	292	0.00	29.922 
09:40	62.0	62.0	62.0	75	54.0	0	2	292	0.00	29.922 
09:45	62.3	62.3	62.3	75	54.3	1	3	315	0.00	29.922 
09:50	62.6	62.6	62.6	74	54.2	1	4	315	0.00	29.922 
09:55	63.1	63.1	63.1	71	53.5	1	4	315	0.00	29.922 
10:00	63.4	63.4	63.4	69	53.0	1	4	315	0.00	29.919 
10:05	63.9	63.9	63.9	68	53.1	1	4	270	0.00	29.919 
10:10	64.0	64.0	64.0	65	52.0	2	5	270	0.00	29.919 
10:15	64.5	64.5	64.5	65	52.5	2	4	270	0.00	29.917 
10:20	65.0	65.0	65.0	65	52.9	1	4	292	0.00	29.917 
10:25	65.3	65.3	65.3	62	51.9	2	7	292	0.00	29.917 
10:30	65.8	65.8	65.8	63	52.8	1	3	292	0.00	29.916 
10:35	66.3	66.3	66.3	62	52.9	1	4	292	0.00	29.916 
10:40	66.4	66.4	66.4	55	49.7	2	6	270	0.00	29.916 
10:45	66.8	66.8	66.8	54	49.6	1	7	270	0.00	29.915 
10:50	66.9	66.9	66.9	52	48.7	3	6	270	0.00	29.915 
10:55	67.1	67.1	67.1	50	47.8	3	8	270	0.00	29.915 
11:00	67.3	67.3	67.3	47	46.4	5	9	292	0.00	29.917 
11:05	67.4	67.4	67.4	50	48.1	3	8	270	0.00	29.917 
11:10	67.9	67.9	67.9	52	49.6	2	5	292	0.00	29.917 
11:15	68.3	68.3	68.3	48	47.8	2	6	292	0.00	29.920 
11:20	68.4	68.4	68.4	47	47.4	2	6	270	0.00	29.920 
11:25	68.4	68.4	68.4	46	46.8	4	9	292	0.00	29.920 
11:30	68.4	68.4	68.4	46	46.8	3	7	270	0.00	29.921 
11:35	68.6	68.6	68.6	46	47.0	2	7	270	0.00	29.921 
11:40	68.9	68.9	68.9	46	47.3	3	7	270	0.00	29.921 
11:45	68.9	68.9	68.9	46	47.3	4	7	292	0.00	29.918 
11:50	68.9	68.9	68.9	46	47.3	4	10	270	0.00	29.918 
11:55	68.6	68.6	68.6	46	47.0	5	9	270	0.00	29.918 
12:00	68.6	68.6	68.6	49	48.7	1	6	292	0.00	29.918 
12:05	69.1	69.1	69.1	48	48.6	2	5	292	0.00	29.918 
12:10	69.1	69.1	69.1	47	48.0	2	4	292	0.00	29.918 
12:15	69.4	69.4	69.4	47	48.3	3	5	292	0.00	29.918 
12:20	69.6	69.6	69.6	45	47.3	3	6	270	0.00	29.918 
12:25	69.9	69.9	69.9	46	48.2	3	6	270	0.00	29.918 
12:30	70.1	70.1	70.1	46	48.3	2	6	292	0.00	29.915 
12:35	70.3	70.3	70.3	45	47.9	2	7	270	0.00	29.915 
12:40	70.4	70.4	70.4	44	47.4	2	8	270	0.00	29.915 
12:45	70.3	70.3	70.3	43	46.7	4	10	270	0.00	29.912 
12:50	70.4	70.4	70.4	44	47.4	3	9	270	0.00	29.912 
12:55	70.6	70.6	70.6	44	47.6	4	9	270	0.00	29.912 
13:00	70.9	70.9	70.9	45	48.5	2	6	270	0.00	29.905 
13:05	71.1	71.1	71.1	43	47.5	1	6	270	0.00	29.905 
13:10	70.9	70.9	70.9	42	46.6	3	7	292	0.00	29.905 
13:15	70.9	70.9	70.9	43	47.3	3	7	270	0.00	29.902 
13:20	71.1	71.1	71.1	42	46.8	3	6	292	0.00	29.902 
13:25	71.3	71.3	71.3	43	47.6	3	6	270	0.00	29.902 
13:30	71.3	71.3	71.3	41	46.4	3	7	292	0.00	29.900 
13:35	71.5	71.5	71.5	42	47.2	3	7	292	0.00	29.900 
13:40	71.6	71.6	71.6	41	46.6	2	7	292	0.00	29.900 
13:45	71.5	71.5	71.5	40	45.9	4	9	292	0.00	29.894 
13:50	71.3	71.3	71.3	42	47.0	3	7	270	0.00	29.894 
13:55	71.5	71.5	71.5	42	47.2	3	10	270	0.00	29.894 
14:00	71.6	71.6	71.6	41	46.6	2	6	292	0.00	29.890 
14:05	71.3	71.3	71.3	43	47.6	3	7	292	0.00	29.890 
14:10	71.8	71.8	71.8	43	48.1	2	7	270	0.00	29.890 
14:15	72.3	72.3	72.3	42	47.9	2	6	270	0.00	29.886 
14:20	72.3	72.3	72.3	41	47.3	3	7	270	0.00	29.886 
14:25	72.1	72.1	72.1	40	46.4	3	9	292	0.00	29.886 
14:30	72.1	72.1	72.1	40	46.4	2	5	292	0.00	29.886 
14:35	72.5	72.5	72.5	42	48.1	1	4	292	0.00	29.886 
14:40	72.8	72.8	72.8	41	47.7	2	6	270	0.00	29.886 
14:45	73.0	73.0	73.0	40	47.2	1	3	270	0.00	29.878 
14:50	73.2	73.2	73.2	39	46.7	2	8	292	0.00	29.878 
14:55	72.7	72.7	72.7	39	46.3	4	7	270	0.00	29.878 
15:00	72.7	72.7	72.7	40	47.0	2	6	292	0.00	29.873 
15:05	72.8	72.8	72.8	39	46.4	2	5	270	0.00	29.873 
15:10	73.2	73.2	73.2	41	48.1	2	6	292	0.00	29.873 
15:15	73.3	73.3	73.3	39	46.8	2	6	270	0.00	29.873 
15:20	73.3	73.3	73.3	40	47.5	2	6	292	0.00	29.873 
15:25	73.5	73.5	73.5	40	47.7	1	4	292	0.00	29.873 
15:30	73.5	73.5	73.5	39	47.0	2	6	270	0.00	29.869 
15:35	73.7	73.7	73.7	38	46.5	1	4	292	0.00	29.869 
15:40	73.9	73.9	73.9	40	48.0	1	4	292	0.00	29.869 
15:45	73.9	73.9	73.9	39	47.4	2	7	270	0.00	29.868 
15:50	73.7	73.7	73.7	39	47.2	1	4	270	0.00	29.868 
15:55	73.9	73.9	73.9	40	48.0	2	6	270	0.00	29.868 
16:00	73.9	73.9	73.9	37	46.0	3	7	270	0.00	29.869 
16:05	73.9	73.9	73.9	39	47.4	1	5	270	0.00	29.869 
16:10	73.7	73.7	73.7	39	47.2	1	5	270	0.00	29.869 
16:15	73.7	73.7	73.7	39	47.2	1	4	292	0.00	29.865 
16:20	73.9	73.9	73.9	38	46.7	1	3	292	0.00	29.865 
16:25	74.0	74.0	74.0	38	46.8	2	6	270	0.00	29.865 
16:30	73.7	73.7	73.7	37	45.8	2	9	270	0.00	29.861 
16:35	73.5	73.5	73.5	37	45.6	2	7	270	0.00	29.861 
16:40	73.3	73.3	73.3	41	48.2	2	9	270	0.00	29.861 
16:45	73.5	73.5	73.5	40	47.7	1	7	270	0.00	29.860 
16:50	73.5	73.5	73.5	39	47.0	1	5	270	0.00	29.860 
16:55	73.7	73.7	73.7	38	46.5	1	5	292	0.00	29.860 
17:00	73.5	73.5	73.5	38	46.3	3	10	270	0.00	29.863 
17:05	73.5	73.5	73.5	39	47.0	2	9	270	0.00	29.863 
17:10	73.9	73.9	73.9	39	47.4	1	5	270	0.00	29.863 
17:15	74.0	74.0	74.0	35	44.6	2	5	270	0.00	29.866 
17:20	74.2	74.2	74.2	37	46.2	0	2	248	0.00	29.866 
17:25	73.9	73.9	73.9	34	43.7	3	11	270	0.00	29.866 
17:30	73.7	73.7	73.7	36	45.1	1	4	270	0.00	29.866 
17:35	73.9	73.9	73.9	35	44.5	2	7	270	0.00	29.866 
17:40	73.9	73.9	73.9	35	44.5	1	4	270	0.00	29.866 
17:45	74.0	74.0	74.0	36	45.3	1	5	270	0.00	29.868 
17:50	74.0	74.0	74.0	36	45.3	1	3	270	0.00	29.868 
17:55	73.9	73.9	73.9	37	46.0	1	5	270	0.00	29.868 
18:00	73.7	73.7	73.7	37	45.8	1	4	292	0.00	29.869 
18:05	73.5	73.5	73.5	38	46.3	2	4	292	0.00	29.869 
18:10	73.2	73.2	73.2	37	45.4	2	6	292	0.00	29.869 
18:15	73.2	73.2	73.2	37	45.4	1	5	270	0.00	29.869 
18:20	72.8	72.8	72.8	38	45.7	1	4	270	0.00	29.869 
18:25	72.5	72.5	72.5	38	45.4	3	6	270	0.00	29.869 
18:30	72.7	72.7	72.7	40	47.0	1	3	270	0.00	29.871 
18:35	72.3	72.3	72.3	40	46.6	1	4	270	0.00	29.871 
18:40	72.3	72.3	72.3	40	46.6	2	6	270	0.00	29.871 
18:45	72.5	72.5	72.5	39	46.1	2	6	270	0.00	29.872 
18:50	72.1	72.1	72.1	40	46.4	3	6	270	0.00	29.872 
18:55	72.0	72.0	72.0	41	47.0	1	5	270	0.00	29.872 
19:00	71.8	71.8	71.8	40	46.2	1	5	270	0.00	29.873 
19:05	71.6	71.6	71.6	40	46.0	2	5	270	0.00	29.873 
19:10	71.6	71.6	71.6	41	46.6	1	4	270	0.00	29.873 
19:15	71.5	71.5	71.5	42	47.2	1	6	270	0.00	29.873 
19:20	71.1	71.1	71.1	42	46.8	2	5	270	0.00	29.873 
19:25	70.9	70.9	70.9	43	47.3	1	5	292	0.00	29.873 
19:30	70.8	70.8	70.8	43	47.2	1	4	292	0.00	29.876 
19:35	70.6	70.6	70.6	43	47.0	2	4	292	0.00	29.876 
19:40	70.6	70.6	70.6	44	47.6	2	4	292	0.00	29.876 
19:45	70.4	70.4	70.4	44	47.4	1	3	292	0.00	29.877 
19:50	70.1	70.1	70.1	45	47.8	1	3	292	0.00	29.877 
19:55	69.9	69.9	69.9	46	48.2	1	4	292	0.00	29.877 
20:00	69.6	69.6	69.6	46	47.9	1	4	292	0.00	29.880 
20:05	69.4	69.4	69.4	47	48.3	0	2	292	0.00	29.880 
20:10	69.3	69.3	69.3	47	48.2	0	1	292	0.00	29.880 
20:15	69.1	69.1	69.1	48	48.6	0	1	292	0.00	29.881 
20:20	69.1	69.1	69.1	48	48.6	0	2	292	0.00	29.881 
20:25	68.9	68.9	68.9	49	48.9	0	1	292	0.00	29.881 
20:30	68.8	68.8	68.8	50	49.4	0	0	---	0.00	29.882 
20:35	68.6	68.6	68.6	50	49.2	0	1	292	0.00	29.882 
20:40	68.4	68.4	68.4	50	49.0	0	2	292	0.00	29.882 
20:45	68.4	68.4	68.4	50	49.0	0	1	292	0.00	29.881 
20:50	68.3	68.3	68.3	51	49.5	0	1	292	0.00	29.881 
20:55	68.1	68.1	68.1	50	48.7	0	1	292	0.00	29.881 
21:00	68.1	68.1	68.1	51	49.3	0	1	292	0.00	29.885 
21:05	68.1	68.1	68.1	50	48.7	0	4	292	0.00	29.885 
21:10	68.1	68.1	68.1	51	49.3	0	3	292	0.00	29.885 
21:15	68.1	68.1	68.1	50	48.7	0	2	292	0.00	29.884 
21:20	68.1	68.1	68.1	50	48.7	0	1	292	0.00	29.884 
21:25	68.1	68.1	68.1	50	48.7	0	2	292	0.00	29.884 
21:30	67.9	67.9	67.9	50	48.6	0	1	292	0.00	29.885 
21:35	67.8	67.8	67.8	52	49.5	0	1	292	0.00	29.885 
21:40	67.6	67.6	67.6	52	49.3	0	1	292	0.00	29.885 
21:45	67.6	67.6	67.6	52	49.3	0	1	292	0.00	29.885 
21:50	67.4	67.4	67.4	52	49.2	0	2	292	0.00	29.885 
21:55	67.3	67.3	67.3	53	49.6	0	3	292	0.00	29.885 
22:00	67.1	67.1	67.1	53	49.4	0	2	292	0.00	29.885 
22:05	66.9	66.9	66.9	53	49.2	0	2	292	0.00	29.885 
22:10	66.9	66.9	66.9	53	49.2	0	2	292	0.00	29.885 
22:15	66.8	66.8	66.8	54	49.6	0	3	292	0.00	29.883 
22:20	66.8	66.8	66.8	53	49.1	0	1	292	0.00	29.883 
22:25	66.8	66.8	66.8	54	49.6	0	3	292	0.00	29.883 
22:30	66.6	66.6	66.6	54	49.4	0	1	292	0.00	29.883 
22:35	66.4	66.4	66.4	54	49.2	0	1	292	0.00	29.883 
22:40	66.3	66.3	66.3	55	49.6	0	1	292	0.00	29.883 
22:45	66.1	66.1	66.1	55	49.5	0	2	292	0.00	29.886 
22:50	66.0	66.0	66.0	56	49.8	0	1	292	0.00	29.886 
22:55	66.0	66.0	66.0	55	49.4	1	3	292	0.00	29.886 
23:00	65.8	65.8	65.8	56	49.7	0	2	292	0.00	29.887 
23:05	65.8	65.8	65.8	56	49.7	0	3	292	0.00	29.887 
23:10	65.8	65.8	65.8	56	49.7	1	3	292	0.00	29.887 
23:15	65.8	65.8	65.8	56	49.7	1	4	292	0.00	29.893 
23:20	65.8	65.8	65.8	57	50.1	1	5	292	0.00	29.893 
23:25	65.6	65.6	65.6	58	50.4	1	5	292	0.00	29.893 
23:30	65.5	65.5	65.5	61	51.7	1	3	292	0.00	29.898 
23:35	65.2	65.2	65.2	63	52.3	1	4	292	0.00	29.898 
23:40	64.7	64.7	64.7	65	52.7	1	5	292	0.00	29.898 
23:45	64.2	64.2	64.2	66	52.6	1	3	292	0.00	29.900 
23:50	63.9	63.9	63.9	68	53.1	1	4	292	0.00	29.900 
23:55	63.5	63.5	63.5	69	53.1	0	1	292	0.00	29.900 

CoCoRaHS
IN-AL-39
A2 Web Hosting
Creative Commons License
GoDaddy
search engine by freefind advanced

loaded 2018-11-17 06:10:56 • last modified 2010-11-18 10:43:29
Privacy PolicyDisclaimer
• wx.awcolley.com is powered by PmWiki v.2002016 •
• all content (unless otherwise noted) © 2018 A W Colley